KPSM

Portsmouth International at Pease Airport

Portsmouth, New Hampshire, USA
KPSM 221120Z 2212/2312 28008G16KT P6SM SKC FM221800 29008KT P6SM SCT250 FM222300 VRB03KT P6SM BKN200
Issued Valid From Valid To
Jan-22 @ 11:20 UTC
(6 hours ago)
Jan-22 @ 12:00 UTC
(5 hours ago)
Jan-23 @ 12:00 UTC
(in 19 hours)
Jan-22 @ 12:00 to Jan-22 @ 18:00
KPSM 221120Z 2212/2312 28008G16KT P6SM SKC
Wind Visibility Clouds
280° at 8 knots
 Gusting to 16 knots
Greater than 6 miles
  • Clear skies
From Jan-22 @ 18:00 to Jan-22 @ 23:00
FM221800 29008KT P6SM SCT250
Wind Visibility Clouds
290° at 8 knots Greater than 6 miles
  • Scattered at 25,000' AGL
From Jan-22 @ 23:00 to Jan-23 @ 12:00
FM222300 VRB03KT P6SM BKN200
Wind Visibility Clouds
Variable at 3 knots Greater than 6 miles
  • Broken at 20,000' AGL
KPSM 221120Z 2212/2312 28008G16KT P6SM SKC FM221800 29008KT P6SM SCT250 FM222300 VRB03KT P6SM BKN200
Issued Jan-22 @ 11:20 UTC
(6 hours ago)
Valid From Jan-22 @ 12:00 UTC
(5 hours ago)
Valid To Jan-23 @ 12:00 UTC
(in 19 hours)
Jan-22 @ 12:00 - Jan-22 @ 18:00
Wind Visibility
280° at 8 knots
 Gusting to 16 knots
Greater than 6 miles
Clouds
  • Clear skies
From Jan-22 @ 18:00 - Jan-22 @ 23:00
Wind Visibility
290° at 8 knots Greater than 6 miles
Clouds
  • Scattered at 25,000' AGL
From Jan-22 @ 23:00 - Jan-23 @ 12:00
Wind Visibility
Variable at 3 knots Greater than 6 miles
Clouds
  • Broken at 20,000' AGL